createdAt,value
2022-11-20T00:00:18.739Z,1.90
2022-11-20T00:02:45.572Z,2.33
2022-11-20T00:05:12.299Z,1.92
2022-11-20T00:07:39.210Z,2.15
2022-11-20T00:10:06.390Z,2.35
2022-11-20T00:12:33.188Z,2.25
2022-11-20T00:14:59.925Z,2.75
2022-11-20T00:17:26.717Z,2.33
2022-11-20T00:19:53.511Z,2.20
2022-11-20T00:22:20.326Z,2.53
2022-11-20T00:24:47.055Z,2.17
2022-11-20T00:27:14.270Z,1.92
2022-11-20T00:29:41.026Z,2.05
2022-11-20T00:32:07.823Z,2.13
2022-11-20T00:34:34.647Z,1.98
2022-11-20T00:37:01.416Z,2.58
2022-11-20T00:39:28.232Z,2.13
2022-11-20T00:41:55.008Z,2.25
2022-11-20T00:44:21.761Z,2.08
2022-11-20T00:46:48.559Z,2.05
2022-11-20T00:49:15.337Z,2.53
2022-11-20T00:51:42.086Z,2.30
2022-11-20T00:54:08.943Z,2.75
2022-11-20T00:56:35.746Z,2.92
2022-11-20T00:59:02.589Z,2.55
2022-11-20T01:01:32.950Z,2.60
2022-11-20T01:04:04.156Z,2.60
2022-11-20T01:06:36.780Z,2.92
2022-11-20T01:09:10.623Z,3.10
2022-11-20T01:11:40.567Z,3.58
2022-11-20T01:14:14.404Z,3.80
2022-11-20T01:16:47.161Z,2.92
2022-11-20T01:19:18.064Z,2.35
2022-11-20T01:21:48.586Z,2.78
2022-11-20T01:24:17.146Z,2.80
2022-11-20T01:26:45.521Z,2.75
2022-11-20T01:29:15.897Z,2.35
2022-11-20T01:31:43.256Z,2.13
2022-11-20T01:34:20.904Z,1.80
2022-11-20T01:36:47.871Z,2.08
2022-11-20T01:39:23.944Z,2.05
2022-11-20T01:42:10.788Z,2.17
2022-11-20T01:44:57.134Z,2.63
2022-11-20T01:47:27.111Z,3.60
2022-11-20T01:50:11.214Z,3.78
2022-11-20T01:52:43.600Z,2.70
2022-11-20T01:55:18.984Z,3.05
2022-11-20T01:57:48.951Z,2.70
2022-11-20T02:00:18.915Z,3.05
2022-11-20T02:02:54.509Z,2.97
2022-11-20T02:05:42.937Z,2.60
2022-11-20T02:08:09.903Z,2.80
2022-11-20T02:10:36.991Z,2.42
2022-11-20T02:13:22.847Z,2.50
2022-11-20T02:15:50.489Z,1.92
2022-11-20T02:18:19.685Z,1.80
2022-11-20T02:20:48.890Z,2.03
2022-11-20T02:23:39.582Z,2.13
2022-11-20T02:26:10.427Z,2.03
2022-11-20T02:28:37.609Z,1.70
2022-11-20T02:31:04.797Z,1.98
2022-11-20T02:33:31.740Z,1.60
2022-11-20T02:35:58.484Z,2.28
2022-11-20T02:38:27.222Z,1.95
2022-11-20T02:40:55.646Z,1.55
2022-11-20T02:43:23.540Z,2.40
2022-11-20T02:45:50.616Z,2.08
2022-11-20T02:48:17.438Z,1.80
2022-11-20T02:50:44.175Z,1.67
2022-11-20T02:53:10.895Z,1.73
2022-11-20T02:55:37.841Z,2.00
2022-11-20T02:58:04.644Z,1.60
2022-11-20T03:00:31.659Z,1.77
2022-11-20T03:02:58.478Z,2.00
2022-11-20T03:05:25.336Z,1.77
2022-11-20T03:07:52.136Z,1.73
2022-11-20T03:10:18.951Z,2.42
2022-11-20T03:12:46.473Z,2.40
2022-11-20T03:15:13.414Z,2.00
2022-11-20T03:17:40.336Z,1.98
2022-11-20T03:20:08.026Z,1.90
2022-11-20T03:22:34.859Z,2.42
2022-11-20T03:25:01.642Z,2.00
2022-11-20T03:27:28.424Z,1.80
2022-11-20T03:29:55.199Z,2.00
2022-11-20T03:32:21.959Z,1.90
2022-11-20T03:34:48.807Z,1.42
2022-11-20T03:37:15.602Z,1.80
2022-11-20T03:39:42.376Z,1.98
2022-11-20T03:42:29.815Z,1.75
2022-11-20T03:44:56.680Z,2.03
2022-11-20T03:47:23.461Z,1.77
2022-11-20T03:49:50.673Z,2.40
2022-11-20T03:52:17.400Z,1.92
2022-11-20T03:54:44.194Z,1.95
2022-11-20T03:57:10.973Z,1.80
2022-11-20T03:59:37.693Z,2.03
2022-11-20T04:02:04.968Z,1.98
2022-11-20T04:04:34.846Z,1.92
2022-11-20T04:07:04.535Z,2.30
2022-11-20T04:09:31.346Z,1.70
2022-11-20T04:11:58.115Z,1.92
2022-11-20T04:14:25.008Z,1.70
2022-11-20T04:16:51.803Z,2.25
2022-11-20T04:19:19.037Z,1.48
2022-11-20T04:21:46.648Z,1.50
2022-11-20T04:24:13.615Z,1.90
2022-11-20T04:26:41.446Z,1.50
2022-11-20T04:29:11.130Z,1.73
2022-11-20T04:31:37.868Z,1.83
2022-11-20T04:34:06.912Z,1.52
2022-11-20T04:36:34.316Z,1.85
2022-11-20T04:39:05.315Z,2.05
2022-11-20T04:41:34.877Z,1.98
2022-11-20T04:44:04.538Z,1.77
2022-11-20T04:46:42.411Z,1.75
2022-11-20T04:49:09.594Z,2.28
2022-11-20T04:51:36.417Z,2.17
2022-11-20T04:54:03.432Z,2.55
2022-11-20T04:56:30.180Z,2.05
2022-11-20T04:59:00.624Z,2.10
2022-11-20T05:01:27.376Z,2.63
2022-11-20T05:03:54.241Z,2.85
2022-11-20T05:06:22.366Z,3.05
2022-11-20T05:08:49.679Z,2.70
2022-11-20T05:11:19.372Z,3.20
2022-11-20T05:13:46.321Z,3.28
2022-11-20T05:16:15.524Z,3.53
2022-11-20T05:18:43.348Z,3.50
2022-11-20T05:21:11.537Z,2.90
2022-11-20T05:23:39.094Z,2.85
2022-11-20T05:26:08.046Z,2.50
2022-11-20T05:28:35.028Z,2.80
2022-11-20T05:31:10.606Z,2.33
2022-11-20T05:33:40.234Z,2.85
2022-11-20T05:36:07.747Z,4.25
2022-11-20T05:38:35.071Z,4.43
2022-11-20T05:41:27.900Z,3.40
2022-11-20T05:43:54.645Z,2.85
2022-11-20T05:46:28.801Z,4.18
2022-11-20T05:48:57.287Z,3.33
2022-11-20T05:51:24.813Z,2.97
2022-11-20T05:53:51.554Z,3.85
2022-11-20T05:56:20.727Z,3.50
2022-11-20T05:58:48.150Z,3.30
2022-11-20T06:01:23.957Z,3.40
2022-11-20T06:03:51.767Z,2.58
2022-11-20T06:06:20.173Z,2.67
2022-11-20T06:08:47.062Z,2.13
2022-11-20T06:11:14.996Z,2.70
2022-11-20T06:13:43.494Z,1.75
2022-11-20T06:16:11.856Z,1.98
2022-11-20T06:18:38.902Z,1.58
2022-11-20T06:21:08.435Z,2.03
2022-11-20T06:23:36.532Z,2.00
2022-11-20T06:26:12.339Z,2.20
2022-11-20T06:28:39.641Z,1.83
2022-11-20T06:31:07.443Z,1.90
2022-11-20T06:33:34.687Z,2.50
2022-11-20T06:36:05.859Z,2.22
2022-11-20T06:38:34.282Z,2.50
2022-11-20T06:41:01.225Z,2.53
2022-11-20T06:43:30.651Z,2.50
2022-11-20T06:45:59.061Z,2.78
2022-11-20T06:48:29.972Z,3.42
2022-11-20T06:50:57.608Z,3.08
2022-11-20T06:53:25.179Z,3.17
2022-11-20T06:55:52.938Z,2.38
2022-11-20T06:58:20.081Z,2.50
2022-11-20T07:00:46.961Z,2.75
2022-11-20T07:03:14.033Z,2.22
2022-11-20T07:05:41.305Z,2.80
2022-11-20T07:08:08.954Z,2.40
2022-11-20T07:10:36.412Z,2.13
2022-11-20T07:13:03.185Z,2.72
2022-11-20T07:15:30.104Z,2.60
2022-11-20T07:17:59.520Z,2.35
2022-11-20T07:20:26.427Z,2.42
2022-11-20T07:22:57.108Z,2.33
2022-11-20T07:25:25.080Z,2.00
2022-11-20T07:27:52.159Z,2.15
2022-11-20T07:30:19.307Z,2.08
2022-11-20T07:32:52.242Z,1.83
2022-11-20T07:35:19.066Z,1.73
2022-11-20T07:37:46.761Z,2.10
2022-11-20T07:40:14.275Z,1.75
2022-11-20T07:42:55.185Z,2.00
2022-11-20T07:45:24.223Z,1.55
2022-11-20T07:47:51.788Z,1.85
2022-11-20T07:50:19.678Z,1.60
2022-11-20T07:52:46.500Z,1.60
2022-11-20T07:55:13.794Z,1.77
2022-11-20T07:57:41.114Z,1.77
2022-11-20T08:00:11.063Z,2.60
2022-11-20T08:02:39.999Z,2.70
2022-11-20T08:05:07.321Z,2.40
2022-11-20T08:07:39.416Z,3.17
2022-11-20T08:10:07.591Z,3.35
2022-11-20T08:12:52.931Z,3.42
2022-11-20T08:15:20.236Z,2.50
2022-11-20T08:18:08.249Z,2.22
2022-11-20T08:20:35.164Z,2.05
2022-11-20T08:23:04.578Z,1.90
2022-11-20T08:25:31.428Z,1.60
2022-11-20T08:28:12.987Z,1.95
2022-11-20T08:30:47.264Z,2.45
2022-11-20T08:33:14.880Z,2.33
2022-11-20T08:35:42.710Z,2.15
2022-11-20T08:38:10.407Z,1.90
2022-11-20T08:40:37.216Z,2.00
2022-11-20T08:43:04.435Z,1.77
2022-11-20T08:45:34.493Z,2.20
2022-11-20T08:48:05.361Z,1.83
2022-11-20T08:50:34.146Z,1.70
2022-11-20T08:53:07.794Z,1.90
2022-11-20T08:55:36.883Z,1.80
2022-11-20T08:58:07.959Z,2.25
2022-11-20T09:00:35.460Z,1.92
2022-11-20T09:03:03.207Z,2.03
2022-11-20T09:05:30.429Z,1.85
2022-11-20T09:07:58.916Z,1.92
2022-11-20T09:10:26.247Z,2.45
2022-11-20T09:12:54.017Z,1.30
2022-11-20T09:15:21.067Z,1.65
2022-11-20T09:17:59.293Z,1.60
2022-11-20T09:20:27.368Z,1.80
2022-11-20T09:22:55.180Z,2.40
2022-11-20T09:25:22.140Z,2.33
2022-11-20T09:27:49.027Z,2.25
2022-11-20T09:30:16.361Z,2.10
2022-11-20T09:32:43.995Z,2.05
2022-11-20T09:35:11.886Z,2.70
2022-11-20T09:37:39.004Z,2.67
2022-11-20T09:40:06.396Z,2.50
2022-11-20T09:42:40.779Z,2.65
2022-11-20T09:45:45.259Z,2.83
2022-11-20T09:48:28.486Z,2.42
2022-11-20T09:50:58.414Z,2.65
2022-11-20T09:53:41.876Z,2.53
2022-11-20T09:56:11.835Z,2.25
2022-11-20T09:58:46.341Z,1.85
2022-11-20T10:01:19.496Z,1.90
2022-11-20T10:03:46.327Z,2.53
2022-11-20T10:06:18.298Z,2.22
2022-11-20T10:09:00.767Z,2.10
2022-11-20T10:11:47.609Z,2.65
2022-11-20T10:14:26.155Z,3.33
2022-11-20T10:17:28.168Z,3.08
2022-11-20T10:20:13.961Z,2.60
2022-11-20T10:23:01.605Z,3.00
2022-11-20T10:26:03.834Z,2.85
2022-11-20T10:28:58.747Z,2.92
2022-11-20T10:31:29.913Z,3.17
2022-11-20T10:34:19.370Z,2.65
2022-11-20T10:36:59.984Z,2.63
2022-11-20T10:39:42.299Z,2.63
2022-11-20T10:42:22.244Z,3.15
2022-11-20T10:45:05.597Z,3.08
2022-11-20T10:47:33.233Z,2.58
2022-11-20T10:50:05.781Z,2.63
2022-11-20T10:52:35.831Z,2.58
2022-11-20T10:55:21.348Z,2.60
2022-11-20T10:58:12.745Z,2.22
2022-11-20T11:00:39.678Z,2.95
2022-11-20T11:03:31.975Z,3.60
2022-11-20T11:06:10.265Z,3.45
2022-11-20T11:08:39.969Z,2.97
2022-11-20T11:11:30.214Z,2.13
2022-11-20T11:14:16.807Z,3.38
2022-11-20T11:16:56.620Z,4.00
2022-11-20T11:19:25.013Z,3.33
2022-11-20T11:21:55.986Z,2.88
2022-11-20T11:24:45.992Z,3.33
2022-11-20T11:27:17.526Z,3.15
2022-11-20T11:29:45.996Z,2.25
2022-11-20T11:32:19.637Z,2.28
2022-11-20T11:34:46.475Z,2.63
2022-11-20T11:37:20.776Z,2.83
2022-11-20T11:39:55.138Z,3.28
2022-11-20T11:42:31.526Z,4.57
2022-11-20T11:45:06.968Z,4.03
2022-11-20T11:47:44.180Z,4.03
2022-11-20T11:50:11.008Z,4.30
2022-11-20T11:53:01.019Z,3.05
2022-11-20T11:55:40.107Z,3.85
2022-11-20T11:58:39.151Z,4.45
2022-11-20T12:01:13.251Z,4.00
2022-11-20T12:03:43.542Z,2.83
2022-11-20T12:06:16.609Z,2.10
2022-11-20T12:08:57.183Z,1.58
2022-11-20T12:11:40.027Z,1.13
2022-11-20T12:14:24.874Z,1.00
2022-11-20T12:16:54.068Z,1.17
2022-11-20T12:19:21.937Z,1.10
2022-11-20T12:22:09.574Z,1.20
2022-11-20T12:24:53.241Z,1.60
2022-11-20T12:27:40.940Z,1.30
2022-11-20T12:30:17.961Z,0.90
2022-11-20T12:32:51.220Z,1.40
2022-11-20T12:35:54.301Z,2.58
2022-11-20T12:38:58.927Z,1.02
2022-11-20T12:41:44.894Z,0.98
2022-11-20T12:45:01.172Z,1.15
2022-11-20T12:48:05.392Z,0.90
2022-11-20T12:51:13.355Z,0.90
2022-11-20T12:54:00.549Z,1.30
2022-11-20T12:56:44.775Z,0.88
2022-11-20T12:59:36.191Z,1.33
2022-11-20T13:02:20.859Z,1.00
2022-11-20T13:05:21.220Z,1.20
2022-11-20T13:07:51.831Z,1.05
2022-11-20T13:10:35.918Z,1.20
2022-11-20T13:13:21.768Z,1.42
2022-11-20T13:16:23.412Z,1.20
2022-11-20T13:18:50.715Z,1.48
2022-11-20T13:21:24.754Z,1.40
2022-11-20T13:23:51.629Z,1.20
2022-11-20T13:26:24.289Z,1.10
2022-11-20T13:29:23.601Z,1.30
2022-11-20T13:31:50.583Z,1.27
2022-11-20T13:34:28.439Z,1.10
2022-11-20T13:36:57.801Z,0.98
2022-11-20T13:39:28.013Z,1.40
2022-11-20T13:42:15.341Z,1.08
2022-11-20T13:44:54.378Z,0.90
2022-11-20T13:47:26.484Z,1.10
2022-11-20T13:49:57.844Z,1.10
2022-11-20T13:53:03.525Z,1.20
2022-11-20T13:55:55.490Z,1.20
2022-11-20T13:58:22.261Z,0.88
2022-11-20T14:01:02.347Z,1.15
2022-11-20T14:03:59.146Z,0.95
2022-11-20T14:06:25.156Z,1.00
2022-11-20T14:08:51.965Z,0.90
2022-11-20T14:11:25.501Z,0.80
2022-11-20T14:14:20.108Z,0.90
2022-11-20T14:16:48.018Z,0.75
2022-11-20T14:19:20.682Z,0.90
2022-11-20T14:21:53.704Z,0.90
2022-11-20T14:24:26.048Z,0.70
2022-11-20T14:26:53.659Z,0.88
2022-11-20T14:29:27.888Z,1.00
2022-11-20T14:31:56.943Z,0.73
2022-11-20T14:34:26.471Z,0.85
2022-11-20T14:37:05.347Z,1.10
2022-11-20T14:39:42.518Z,0.73
2022-11-20T14:42:29.288Z,0.85
2022-11-20T14:44:58.374Z,0.90
2022-11-20T14:47:28.229Z,0.85
2022-11-20T14:49:57.131Z,0.80
2022-11-20T14:52:26.386Z,0.77
2022-11-20T14:55:00.707Z,0.80
2022-11-20T14:57:36.417Z,0.75
2022-11-20T15:00:07.840Z,0.75
2022-11-20T15:02:34.939Z,0.70
2022-11-20T15:05:04.286Z,0.60
2022-11-20T15:07:46.689Z,0.70
2022-11-20T15:10:28.084Z,0.47
2022-11-20T15:13:06.075Z,0.50
2022-11-20T15:15:54.594Z,0.80
2022-11-20T15:18:24.984Z,0.60
2022-11-20T15:20:52.747Z,0.70
2022-11-20T15:23:20.367Z,0.88
2022-11-20T15:25:49.448Z,0.90
2022-11-20T15:28:20.763Z,0.73
2022-11-20T15:30:49.052Z,0.75
2022-11-20T15:33:16.790Z,0.80
2022-11-20T15:35:44.064Z,0.82
2022-11-20T15:38:11.042Z,0.68
2022-11-20T15:40:37.830Z,0.80
2022-11-20T15:43:09.682Z,0.35
2022-11-20T15:45:43.447Z,0.60
2022-11-20T15:48:14.872Z,0.60
2022-11-20T15:51:11.302Z,0.50
2022-11-20T15:53:42.756Z,0.60
2022-11-20T15:56:13.835Z,0.60
2022-11-20T15:58:41.664Z,0.50
2022-11-20T16:01:20.389Z,0.50
2022-11-20T16:03:47.297Z,0.70
2022-11-20T16:06:14.121Z,0.55
2022-11-20T16:08:40.930Z,0.70
2022-11-20T16:11:07.723Z,0.80
2022-11-20T16:13:54.227Z,0.70
2022-11-20T16:16:26.817Z,0.80
2022-11-20T16:18:53.552Z,1.13
2022-11-20T16:21:20.321Z,1.00
2022-11-20T16:23:47.587Z,1.48
2022-11-20T16:26:20.141Z,1.10
2022-11-20T16:28:47.589Z,1.23
2022-11-20T16:31:19.797Z,0.70
2022-11-20T16:34:01.595Z,0.93
2022-11-20T16:36:30.130Z,0.80
2022-11-20T16:38:59.655Z,1.10
2022-11-20T16:41:28.550Z,0.80
2022-11-20T16:44:10.101Z,0.70
2022-11-20T16:46:37.462Z,0.70
2022-11-20T16:49:12.487Z,0.82
2022-11-20T16:51:39.296Z,1.10
2022-11-20T16:54:08.126Z,0.80
2022-11-20T16:56:35.220Z,0.70
2022-11-20T16:59:03.122Z,1.77
2022-11-20T17:01:31.354Z,0.70
2022-11-20T17:04:06.815Z,0.57
2022-11-20T17:06:40.810Z,0.73
2022-11-20T17:09:09.733Z,0.65
2022-11-20T17:11:37.712Z,0.40
2022-11-20T17:14:07.401Z,0.65
2022-11-20T17:16:35.694Z,0.50
2022-11-20T17:19:03.991Z,0.57
2022-11-20T17:21:32.109Z,0.50
2022-11-20T17:24:03.593Z,1.10
2022-11-20T17:26:31.371Z,0.85
2022-11-20T17:29:06.951Z,1.10
2022-11-20T17:31:35.144Z,1.08
2022-11-20T17:34:02.579Z,0.90
2022-11-20T17:36:30.481Z,0.90
2022-11-20T17:38:58.280Z,0.85
2022-11-20T17:41:28.620Z,0.90
2022-11-20T17:43:57.908Z,0.90
2022-11-20T17:46:27.638Z,1.00
2022-11-20T17:48:56.114Z,0.75
2022-11-20T17:51:26.473Z,1.52
2022-11-20T17:53:58.188Z,0.88
2022-11-20T17:56:44.004Z,0.73
2022-11-20T17:59:14.060Z,0.70
2022-11-20T18:01:43.157Z,1.08
2022-11-20T18:04:11.039Z,0.80
2022-11-20T18:06:38.374Z,0.90
2022-11-20T18:09:06.853Z,0.70
2022-11-20T18:11:36.301Z,1.35
2022-11-20T18:14:25.293Z,1.38
2022-11-20T18:16:55.190Z,0.70
2022-11-20T18:19:32.719Z,0.60
2022-11-20T18:22:01.871Z,0.70
2022-11-20T18:24:29.160Z,1.00
2022-11-20T18:26:57.718Z,0.70
2022-11-20T18:29:25.775Z,0.80
2022-11-20T18:31:53.416Z,0.60
2022-11-20T18:34:20.667Z,0.60
2022-11-20T18:36:47.891Z,0.50
2022-11-20T18:39:15.356Z,0.60
2022-11-20T18:42:01.707Z,0.50
2022-11-20T18:44:49.425Z,0.50
2022-11-20T18:47:17.693Z,0.50
2022-11-20T18:49:52.545Z,0.50
2022-11-20T18:52:28.100Z,0.40
2022-11-20T18:54:55.497Z,0.45
2022-11-20T18:57:25.161Z,0.50
2022-11-20T18:59:53.906Z,0.40
2022-11-20T19:02:22.090Z,0.43
2022-11-20T19:04:49.035Z,0.40
2022-11-20T19:07:16.363Z,0.30
2022-11-20T19:09:47.553Z,0.40
2022-11-20T19:12:14.904Z,0.50
2022-11-20T19:14:41.716Z,0.40
2022-11-20T19:17:10.234Z,0.40
2022-11-20T19:19:37.331Z,0.40
2022-11-20T19:22:04.203Z,0.80
2022-11-20T19:24:31.034Z,0.60
2022-11-20T19:26:58.176Z,0.50
2022-11-20T19:29:25.998Z,0.50
2022-11-20T19:31:53.878Z,0.40
2022-11-20T19:34:20.800Z,0.50
2022-11-20T19:36:47.607Z,0.50
2022-11-20T19:39:14.660Z,0.60
2022-11-20T19:41:41.663Z,0.50
2022-11-20T19:44:11.177Z,0.40
2022-11-20T19:46:39.414Z,0.50
2022-11-20T19:49:10.217Z,0.47
2022-11-20T19:51:38.680Z,0.30
2022-11-20T19:54:06.625Z,0.43
2022-11-20T19:56:34.382Z,0.30
2022-11-20T19:59:01.959Z,0.40
2022-11-20T20:01:31.055Z,0.43
2022-11-20T20:04:02.716Z,0.50
2022-11-20T20:06:30.691Z,0.40
2022-11-20T20:09:03.027Z,0.50
2022-11-20T20:11:31.280Z,0.40
2022-11-20T20:14:00.526Z,0.45
2022-11-20T20:16:28.743Z,0.55
2022-11-20T20:19:01.795Z,0.50
2022-11-20T20:21:30.547Z,0.60
2022-11-20T20:23:58.404Z,0.50
2022-11-20T20:26:27.234Z,0.40
2022-11-20T20:28:54.350Z,0.50
2022-11-20T20:31:26.909Z,0.50
2022-11-20T20:33:54.997Z,0.50
2022-11-20T20:36:23.065Z,0.60
2022-11-20T20:38:59.610Z,0.60
2022-11-20T20:41:26.774Z,0.80
2022-11-20T20:44:12.418Z,0.52
2022-11-20T20:46:39.814Z,0.60
2022-11-20T20:49:07.517Z,0.60
2022-11-20T20:51:34.801Z,0.50
2022-11-20T20:54:01.883Z,0.45
2022-11-20T20:56:28.758Z,0.60
2022-11-20T20:58:55.633Z,0.57
2022-11-20T21:01:23.095Z,0.60
2022-11-20T21:03:50.010Z,0.60
2022-11-20T21:06:17.005Z,0.90
2022-11-20T21:08:44.743Z,0.57
2022-11-20T21:11:14.551Z,0.60
2022-11-20T21:13:43.229Z,0.60
2022-11-20T21:16:10.875Z,1.25
2022-11-20T21:18:38.174Z,0.88
2022-11-20T21:21:25.326Z,0.60
2022-11-20T21:23:53.507Z,0.85
2022-11-20T21:26:21.267Z,1.02
2022-11-20T21:28:49.877Z,0.80
2022-11-20T21:31:22.383Z,0.88
2022-11-20T21:33:52.329Z,0.93
2022-11-20T21:36:24.506Z,0.70
2022-11-20T21:38:53.319Z,0.70
2022-11-20T21:41:20.175Z,0.70
2022-11-20T21:43:51.615Z,0.70
2022-11-20T21:46:26.087Z,0.70
2022-11-20T21:48:53.322Z,0.90
2022-11-20T21:51:22.778Z,0.88
2022-11-20T21:53:50.636Z,0.82
2022-11-20T21:56:20.695Z,1.00
2022-11-20T21:58:48.871Z,1.10
2022-11-20T22:01:17.301Z,1.17
2022-11-20T22:03:48.710Z,1.00
2022-11-20T22:06:16.091Z,1.52
2022-11-20T22:08:43.040Z,1.10
2022-11-20T22:11:14.937Z,1.00
2022-11-20T22:14:00.754Z,1.52
2022-11-20T22:16:27.678Z,1.23
2022-11-20T22:18:56.758Z,0.90
2022-11-20T22:21:25.895Z,1.08
2022-11-20T22:23:53.133Z,1.30
2022-11-20T22:26:22.359Z,1.17
2022-11-20T22:28:50.458Z,1.02
2022-11-20T22:31:18.535Z,1.30
2022-11-20T22:33:45.828Z,1.80
2022-11-20T22:36:15.247Z,1.10
2022-11-20T22:38:42.439Z,1.00
2022-11-20T22:41:17.162Z,1.20
2022-11-20T22:43:45.084Z,1.20
2022-11-20T22:46:17.548Z,0.90
2022-11-20T22:48:58.336Z,1.60
2022-11-20T22:51:27.327Z,1.20
2022-11-20T22:53:54.410Z,1.40
2022-11-20T22:56:21.481Z,1.42
2022-11-20T22:58:50.364Z,1.10
2022-11-20T23:01:24.491Z,1.50
2022-11-20T23:03:54.495Z,0.93
2022-11-20T23:06:22.438Z,1.25
2022-11-20T23:08:50.171Z,1.27
2022-11-20T23:11:22.611Z,1.20
2022-11-20T23:13:58.010Z,1.40
2022-11-20T23:16:26.620Z,1.15
2022-11-20T23:18:55.075Z,1.30
2022-11-20T23:21:21.884Z,1.33
2022-11-20T23:23:50.873Z,0.98
2022-11-20T23:26:19.382Z,1.13
2022-11-20T23:28:46.644Z,1.30
2022-11-20T23:31:15.114Z,1.20
2022-11-20T23:33:44.184Z,1.15
2022-11-20T23:36:11.734Z,1.40
2022-11-20T23:38:38.979Z,1.50
2022-11-20T23:41:05.744Z,1.38
2022-11-20T23:43:32.812Z,1.17
2022-11-20T23:46:01.659Z,0.95
2022-11-20T23:48:33.789Z,1.08
2022-11-20T23:51:00.886Z,1.40
2022-11-20T23:53:28.098Z,1.08
2022-11-20T23:55:56.667Z,0.95
2022-11-20T23:58:25.001Z,0.82
